sensor_id;sensor_type;location;lat;lon;timestamp;pressure;altitude;pressure_sealevel;temperature;humidity
15932;BME280;8065;49.520;11.284;2023-09-08T00:00:52;97821.84;;;20.78;76.86
15932;BME280;8065;49.520;11.284;2023-09-08T00:03:21;97827.22;;;20.74;77.14
15932;BME280;8065;49.520;11.284;2023-09-08T00:05:49;97829.88;;;20.67;77.51
15932;BME280;8065;49.520;11.284;2023-09-08T00:08:18;97831.06;;;20.70;77.22
15932;BME280;8065;49.520;11.284;2023-09-08T00:10:47;97821.06;;;20.81;76.99
15932;BME280;8065;49.520;11.284;2023-09-08T00:13:15;97824.16;;;20.76;76.90
15932;BME280;8065;49.520;11.284;2023-09-08T00:15:43;97824.09;;;20.69;76.83
15932;BME280;8065;49.520;11.284;2023-09-08T00:18:14;97817.97;;;20.75;76.88
15932;BME280;8065;49.520;11.284;2023-09-08T00:20:43;97811.78;;;20.71;77.32
15932;BME280;8065;49.520;11.284;2023-09-08T00:23:11;97815.25;;;20.72;77.20
15932;BME280;8065;49.520;11.284;2023-09-08T00:25:40;97816.03;;;20.72;76.84
15932;BME280;8065;49.520;11.284;2023-09-08T00:28:08;97822.50;;;20.60;77.32
15932;BME280;8065;49.520;11.284;2023-09-08T00:30:37;97820.94;;;20.59;77.28
15932;BME280;8065;49.520;11.284;2023-09-08T00:33:05;97816.66;;;20.51;77.50
15932;BME280;8065;49.520;11.284;2023-09-08T00:35:36;97813.94;;;20.51;77.42
15932;BME280;8065;49.520;11.284;2023-09-08T00:38:05;97810.91;;;20.56;76.71
15932;BME280;8065;49.520;11.284;2023-09-08T00:40:33;97813.09;;;20.40;77.73
15932;BME280;8065;49.520;11.284;2023-09-08T00:43:02;97805.28;;;20.32;77.93
15932;BME280;8065;49.520;11.284;2023-09-08T00:45:30;97802.31;;;20.44;77.32
15932;BME280;8065;49.520;11.284;2023-09-08T00:47:59;97807.03;;;20.54;77.03
15932;BME280;8065;49.520;11.284;2023-09-08T00:50:27;97815.06;;;20.47;77.55
15932;BME280;8065;49.520;11.284;2023-09-08T00:52:58;97820.91;;;20.52;77.07
15932;BME280;8065;49.520;11.284;2023-09-08T00:55:27;97817.28;;;20.38;78.20
15932;BME280;8065;49.520;11.284;2023-09-08T00:57:55;97815.97;;;20.21;78.58
15932;BME280;8065;49.520;11.284;2023-09-08T01:00:24;97815.16;;;20.17;78.39
15932;BME280;8065;49.520;11.284;2023-09-08T01:02:52;97811.25;;;20.11;78.65
15932;BME280;8065;49.520;11.284;2023-09-08T01:05:21;97811.97;;;20.04;78.55
15932;BME280;8065;49.520;11.284;2023-09-08T01:07:51;97816.72;;;20.18;78.91
15932;BME280;8065;49.520;11.284;2023-09-08T01:10:23;97814.84;;;20.22;78.48
15932;BME280;8065;49.520;11.284;2023-09-08T01:12:52;97811.63;;;20.09;78.32
15932;BME280;8065;49.520;11.284;2023-09-08T01:15:20;97811.97;;;20.04;78.95
15932;BME280;8065;49.520;11.284;2023-09-08T01:17:49;97814.56;;;19.93;78.91
15932;BME280;8065;49.520;11.284;2023-09-08T01:20:18;97820.91;;;19.71;79.99
15932;BME280;8065;49.520;11.284;2023-09-08T01:23:10;97816.59;;;19.63;80.63
15932;BME280;8065;49.520;11.284;2023-09-08T01:25:46;97819.66;;;19.61;80.21
15932;BME280;8065;49.520;11.284;2023-09-08T01:28:20;97817.09;;;19.76;79.39
15932;BME280;8065;49.520;11.284;2023-09-08T01:30:49;97816.34;;;19.75;79.74
15932;BME280;8065;49.520;11.284;2023-09-08T01:33:18;97810.94;;;19.75;79.53
15932;BME280;8065;49.520;11.284;2023-09-08T01:35:47;97812.16;;;19.81;79.45
15932;BME280;8065;49.520;11.284;2023-09-08T01:38:16;97806.34;;;19.79;79.10
15932;BME280;8065;49.520;11.284;2023-09-08T01:40:47;97807.91;;;19.80;79.39
15932;BME280;8065;49.520;11.284;2023-09-08T01:43:16;97804.84;;;19.82;79.45
15932;BME280;8065;49.520;11.284;2023-09-08T01:45:44;97803.31;;;19.84;79.06
15932;BME280;8065;49.520;11.284;2023-09-08T01:48:12;97804.81;;;19.78;79.11
15932;BME280;8065;49.520;11.284;2023-09-08T01:50:41;97816.28;;;19.72;79.75
15932;BME280;8065;49.520;11.284;2023-09-08T01:53:09;97812.50;;;19.76;79.00
15932;BME280;8065;49.520;11.284;2023-09-08T01:55:37;97805.47;;;19.68;79.53
15932;BME280;8065;49.520;11.284;2023-09-08T01:58:08;97802.38;;;19.66;79.53
15932;BME280;8065;49.520;11.284;2023-09-08T02:00:37;97811.28;;;19.70;78.80
15932;BME280;8065;49.520;11.284;2023-09-08T02:03:05;97803.03;;;19.56;79.71
15932;BME280;8065;49.520;11.284;2023-09-08T02:05:33;97813.81;;;19.56;79.45
15932;BME280;8065;49.520;11.284;2023-09-08T02:08:05;97802.63;;;19.54;79.18
15932;BME280;8065;49.520;11.284;2023-09-08T02:10:33;97802.09;;;19.45;79.43
15932;BME280;8065;49.520;11.284;2023-09-08T02:13:01;97808.06;;;19.27;80.12
15932;BME280;8065;49.520;11.284;2023-09-08T02:15:34;97807.31;;;19.30;80.41
15932;BME280;8065;49.520;11.284;2023-09-08T02:18:04;97802.66;;;19.27;80.30
15932;BME280;8065;49.520;11.284;2023-09-08T02:20:32;97800.38;;;19.29;80.02
15932;BME280;8065;49.520;11.284;2023-09-08T02:23:04;97806.75;;;19.48;79.34
15932;BME280;8065;49.520;11.284;2023-09-08T02:25:33;97805.75;;;19.29;80.28
15932;BME280;8065;49.520;11.284;2023-09-08T02:28:01;97808.75;;;19.21;80.51
15932;BME280;8065;49.520;11.284;2023-09-08T02:30:32;97807.13;;;19.16;80.23
15932;BME280;8065;49.520;11.284;2023-09-08T02:33:01;97805.44;;;19.01;80.90
15932;BME280;8065;49.520;11.284;2023-09-08T02:35:29;97811.84;;;18.93;81.18
15932;BME280;8065;49.520;11.284;2023-09-08T02:37:58;97814.03;;;18.84;81.38
15932;BME280;8065;49.520;11.284;2023-09-08T02:40:26;97819.06;;;18.85;81.40
15932;BME280;8065;49.520;11.284;2023-09-08T02:42:54;97810.63;;;18.87;81.65
15932;BME280;8065;49.520;11.284;2023-09-08T02:45:23;97812.16;;;18.88;81.15
15932;BME280;8065;49.520;11.284;2023-09-08T02:47:54;97815.59;;;18.85;81.48
15932;BME280;8065;49.520;11.284;2023-09-08T02:50:22;97812.28;;;18.95;81.25
15932;BME280;8065;49.520;11.284;2023-09-08T02:52:51;97809.84;;;18.86;81.58
15932;BME280;8065;49.520;11.284;2023-09-08T02:55:20;97813.81;;;18.96;81.01
15932;BME280;8065;49.520;11.284;2023-09-08T02:57:48;97823.03;;;18.95;80.97
15932;BME280;8065;49.520;11.284;2023-09-08T03:00:16;97814.03;;;18.84;81.39
15932;BME280;8065;49.520;11.284;2023-09-08T03:02:45;97818.97;;;18.78;81.48
15932;BME280;8065;49.520;11.284;2023-09-08T03:05:16;97819.63;;;18.72;81.78
15932;BME280;8065;49.520;11.284;2023-09-08T03:07:47;97819.94;;;18.66;81.70
15932;BME280;8065;49.520;11.284;2023-09-08T03:10:16;97821.66;;;18.55;82.77
15932;BME280;8065;49.520;11.284;2023-09-08T03:12:44;97816.34;;;18.59;82.17
15932;BME280;8065;49.520;11.284;2023-09-08T03:15:13;97814.72;;;18.54;81.87
15932;BME280;8065;49.520;11.284;2023-09-08T03:17:41;97809.34;;;18.54;81.87
15932;BME280;8065;49.520;11.284;2023-09-08T03:20:10;97809.34;;;18.54;81.95
15932;BME280;8065;49.520;11.284;2023-09-08T03:22:41;97815.44;;;18.51;81.87
15932;BME280;8065;49.520;11.284;2023-09-08T03:25:09;97814.19;;;18.45;82.45
15932;BME280;8065;49.520;11.284;2023-09-08T03:27:38;97818.31;;;18.39;82.75
15932;BME280;8065;49.520;11.284;2023-09-08T03:30:07;97812.84;;;18.32;82.98
15932;BME280;8065;49.520;11.284;2023-09-08T03:32:36;97814.38;;;18.33;83.00
15932;BME280;8065;49.520;11.284;2023-09-08T03:35:06;97818.56;;;18.30;82.72
15932;BME280;8065;49.520;11.284;2023-09-08T03:37:35;97805.94;;;18.34;82.82
15932;BME280;8065;49.520;11.284;2023-09-08T03:40:07;97805.19;;;18.34;82.33
15932;BME280;8065;49.520;11.284;2023-09-08T03:42:36;97808.28;;;18.36;82.50
15932;BME280;8065;49.520;11.284;2023-09-08T03:45:05;97812.13;;;18.35;83.16
15932;BME280;8065;49.520;11.284;2023-09-08T03:47:33;97806.00;;;18.38;84.05
15932;BME280;8065;49.520;11.284;2023-09-08T03:50:03;97804.56;;;18.44;83.64
15932;BME280;8065;49.520;11.284;2023-09-08T03:52:31;97803.00;;;18.43;84.20
15932;BME280;8065;49.520;11.284;2023-09-08T03:54:59;97806.13;;;18.45;82.68
15932;BME280;8065;49.520;11.284;2023-09-08T03:57:30;97803.63;;;18.33;82.84
15932;BME280;8065;49.520;11.284;2023-09-08T03:59:59;97795.19;;;18.34;82.87
15932;BME280;8065;49.520;11.284;2023-09-08T04:02:30;97808.84;;;18.22;83.18
15932;BME280;8065;49.520;11.284;2023-09-08T04:04:59;97805.94;;;18.34;82.66
15932;BME280;8065;49.520;11.284;2023-09-08T04:07:27;97803.63;;;18.33;82.65
15932;BME280;8065;49.520;11.284;2023-09-08T04:09:55;97806.56;;;18.24;82.70
15932;BME280;8065;49.520;11.284;2023-09-08T04:12:24;97808.88;;;18.26;82.85
15932;BME280;8065;49.520;11.284;2023-09-08T04:14:54;97803.72;;;18.14;83.21
15932;BME280;8065;49.520;11.284;2023-09-08T04:17:23;97811.00;;;18.13;83.29
15932;BME280;8065;49.520;11.284;2023-09-08T04:19:51;97806.34;;;18.10;83.03
15932;BME280;8065;49.520;11.284;2023-09-08T04:22:20;97807.84;;;18.08;82.90
15932;BME280;8065;49.520;11.284;2023-09-08T04:24:48;97817.63;;;17.96;83.76
15932;BME280;8065;49.520;11.284;2023-09-08T04:27:18;97813.25;;;17.88;83.57
15932;BME280;8065;49.520;11.284;2023-09-08T04:29:47;97814.28;;;17.80;83.88
15932;BME280;8065;49.520;11.284;2023-09-08T04:32:17;97816.25;;;17.83;83.92
15932;BME280;8065;49.520;11.284;2023-09-08T04:34:46;97818.09;;;17.79;84.25
15932;BME280;8065;49.520;11.284;2023-09-08T04:37:14;97821.06;;;17.74;84.25
15932;BME280;8065;49.520;11.284;2023-09-08T04:39:43;97818.88;;;17.80;84.19
15932;BME280;8065;49.520;11.284;2023-09-08T04:42:12;97814.41;;;17.87;84.11
15932;BME280;8065;49.520;11.284;2023-09-08T04:44:41;97820.63;;;17.91;83.70
15932;BME280;8065;49.520;11.284;2023-09-08T04:47:09;97815.66;;;17.93;83.34
15932;BME280;8065;49.520;11.284;2023-09-08T04:49:40;97824.84;;;17.92;83.22
15932;BME280;8065;49.520;11.284;2023-09-08T04:52:08;97821.63;;;17.83;84.14
15932;BME280;8065;49.520;11.284;2023-09-08T04:54:37;97824.09;;;17.73;84.47
15932;BME280;8065;49.520;11.284;2023-09-08T04:57:05;97817.47;;;17.66;84.43
15932;BME280;8065;49.520;11.284;2023-09-08T04:59:33;97818.16;;;17.63;84.60
15932;BME280;8065;49.520;11.284;2023-09-08T05:02:02;97819.94;;;17.75;84.18
15932;BME280;8065;49.520;11.284;2023-09-08T05:04:31;97818.28;;;17.90;83.88
15932;BME280;8065;49.520;11.284;2023-09-08T05:07:02;97825.88;;;17.84;83.95
15932;BME280;8065;49.520;11.284;2023-09-08T05:09:30;97825.44;;;17.82;84.29
15932;BME280;8065;49.520;11.284;2023-09-08T05:11:59;97825.16;;;17.87;84.16
15932;BME280;8065;49.520;11.284;2023-09-08T05:14:27;97823.53;;;17.83;84.46
15932;BME280;8065;49.520;11.284;2023-09-08T05:16:55;97820.41;;;17.81;84.35
15932;BME280;8065;49.520;11.284;2023-09-08T05:19:24;97821.19;;;17.81;84.53
15932;BME280;8065;49.520;11.284;2023-09-08T05:21:54;97826.16;;;17.60;84.93
15932;BME280;8065;49.520;11.284;2023-09-08T05:24:25;97823.53;;;17.63;85.10
15932;BME280;8065;49.520;11.284;2023-09-08T05:26:54;97821.06;;;17.55;85.92
15932;BME280;8065;49.520;11.284;2023-09-08T05:29:22;97821.47;;;17.57;86.04
15932;BME280;8065;49.520;11.284;2023-09-08T05:31:50;97829.13;;;17.55;86.09
15932;BME280;8065;49.520;11.284;2023-09-08T05:34:19;97832.47;;;17.67;85.51
15932;BME280;8065;49.520;11.284;2023-09-08T05:36:47;97831.81;;;17.74;85.56
15932;BME280;8065;49.520;11.284;2023-09-08T05:39:15;97837.47;;;17.69;86.17
15932;BME280;8065;49.520;11.284;2023-09-08T05:41:47;97837.03;;;17.86;84.96
15932;BME280;8065;49.520;11.284;2023-09-08T05:44:15;97840.84;;;18.05;84.71
15932;BME280;8065;49.520;11.284;2023-09-08T05:46:44;97841.53;;;18.01;84.74
15932;BME280;8065;49.520;11.284;2023-09-08T05:49:12;97845.19;;;18.13;84.51
15932;BME280;8065;49.520;11.284;2023-09-08T05:51:41;97848.53;;;18.29;84.03
15932;BME280;8065;49.520;11.284;2023-09-08T05:54:09;97845.84;;;18.29;84.47
15932;BME280;8065;49.520;11.284;2023-09-08T05:56:38;97849.97;;;18.46;83.62
15932;BME280;8065;49.520;11.284;2023-09-08T05:59:09;97837.03;;;18.55;83.30
15932;BME280;8065;49.520;11.284;2023-09-08T06:01:37;97848.78;;;18.66;82.98
15932;BME280;8065;49.520;11.284;2023-09-08T06:04:06;97852.78;;;18.76;83.20
15932;BME280;8065;49.520;11.284;2023-09-08T06:06:34;97841.38;;;18.86;82.86
15932;BME280;8065;49.520;11.284;2023-09-08T06:09:03;97851.47;;;18.92;82.80
15932;BME280;8065;49.520;11.284;2023-09-08T06:11:31;97845.53;;;19.06;82.69
15932;BME280;8065;49.520;11.284;2023-09-08T06:14:00;97853.59;;;19.06;81.90
15932;BME280;8065;49.520;11.284;2023-09-08T06:16:31;97846.69;;;19.09;81.41
15932;BME280;8065;49.520;11.284;2023-09-08T06:19:00;97845.19;;;19.11;81.93
15932;BME280;8065;49.520;11.284;2023-09-08T06:21:29;97842.75;;;19.32;81.85
15932;BME280;8065;49.520;11.284;2023-09-08T06:23:57;97844.38;;;19.37;81.45
15932;BME280;8065;49.520;11.284;2023-09-08T06:26:26;97846.47;;;19.51;81.36
15932;BME280;8065;49.520;11.284;2023-09-08T06:28:54;97837.78;;;19.64;81.02
15932;BME280;8065;49.520;11.284;2023-09-08T06:31:23;97834.84;;;19.77;81.20
15932;BME280;8065;49.520;11.284;2023-09-08T06:33:54;97840.03;;;19.92;81.29
15932;BME280;8065;49.520;11.284;2023-09-08T06:36:22;97837.03;;;20.05;80.54
15932;BME280;8065;49.520;11.284;2023-09-08T06:38:50;97832.91;;;20.18;80.20
15932;BME280;8065;49.520;11.284;2023-09-08T06:41:19;97837.59;;;20.24;80.01
15932;BME280;8065;49.520;11.284;2023-09-08T06:43:48;97832.22;;;20.28;78.71
15932;BME280;8065;49.520;11.284;2023-09-08T06:46:16;97833.84;;;20.36;78.57
15932;BME280;8065;49.520;11.284;2023-09-08T06:48:45;97836.28;;;20.48;78.31
15932;BME280;8065;49.520;11.284;2023-09-08T06:51:16;97831.72;;;20.56;78.48
15932;BME280;8065;49.520;11.284;2023-09-08T06:53:46;97836.06;;;20.68;78.96
15932;BME280;8065;49.520;11.284;2023-09-08T06:56:21;97838.84;;;20.78;77.67
15932;BME280;8065;49.520;11.284;2023-09-08T06:58:50;97836.63;;;20.98;78.05
15932;BME280;8065;49.520;11.284;2023-09-08T07:01:18;97831.00;;;21.24;76.79
15932;BME280;8065;49.520;11.284;2023-09-08T07:03:46;97841.34;;;21.15;77.02
15932;BME280;8065;49.520;11.284;2023-09-08T07:06:17;97840.69;;;21.33;76.66
15932;BME280;8065;49.520;11.284;2023-09-08T07:08:47;97838.38;;;21.35;76.13
15932;BME280;8065;49.520;11.284;2023-09-08T07:11:16;97845.44;;;21.57;75.26
15932;BME280;8065;49.520;11.284;2023-09-08T07:13:45;97847.00;;;21.65;75.48
15932;BME280;8065;49.520;11.284;2023-09-08T07:16:13;97849.72;;;21.79;75.66
15932;BME280;8065;49.520;11.284;2023-09-08T07:18:41;97850.19;;;21.99;74.26
15932;BME280;8065;49.520;11.284;2023-09-08T07:21:10;97845.53;;;21.96;74.21
15932;BME280;8065;49.520;11.284;2023-09-08T07:23:41;97848.69;;;22.16;72.76
15932;BME280;8065;49.520;11.284;2023-09-08T07:26:09;97836.72;;;22.31;73.22
15932;BME280;8065;49.520;11.284;2023-09-08T07:28:37;97839.41;;;22.31;72.71
15932;BME280;8065;49.520;11.284;2023-09-08T07:31:06;97831.31;;;22.35;72.50
15932;BME280;8065;49.520;11.284;2023-09-08T07:33:35;97837.84;;;22.69;72.31
15932;BME280;8065;49.520;11.284;2023-09-08T07:36:04;97840.22;;;22.49;70.93
15932;BME280;8065;49.520;11.284;2023-09-08T07:38:33;97833.25;;;22.48;71.45
15932;BME280;8065;49.520;11.284;2023-09-08T07:41:04;97837.84;;;22.73;71.33
15932;BME280;8065;49.520;11.284;2023-09-08T07:43:33;97840.94;;;22.89;71.01
15932;BME280;8065;49.520;11.284;2023-09-08T07:46:05;97843.66;;;22.96;72.56
15932;BME280;8065;49.520;11.284;2023-09-08T07:48:34;97837.75;;;23.26;71.19
15932;BME280;8065;49.520;11.284;2023-09-08T07:51:02;97838.91;;;23.36;69.88
15932;BME280;8065;49.520;11.284;2023-09-08T07:53:31;97835.72;;;23.51;69.84
15932;BME280;8065;49.520;11.284;2023-09-08T07:55:59;97841.44;;;23.78;69.60
15932;BME280;8065;49.520;11.284;2023-09-08T07:58:30;97845.34;;;23.70;68.66
15932;BME280;8065;49.520;11.284;2023-09-08T08:00:58;97840.69;;;23.71;67.97
15932;BME280;8065;49.520;11.284;2023-09-08T08:03:27;97842.94;;;23.86;68.29
15932;BME280;8065;49.520;11.284;2023-09-08T08:05:56;97849.03;;;24.05;67.46
15932;BME280;8065;49.520;11.284;2023-09-08T08:08:25;97844.69;;;24.18;66.58
15932;BME280;8065;49.520;11.284;2023-09-08T08:10:53;97846.75;;;24.00;67.58
15932;BME280;8065;49.520;11.284;2023-09-08T08:13:21;97847.81;;;24.13;67.02
15932;BME280;8065;49.520;11.284;2023-09-08T08:15:52;97842.53;;;24.47;66.18
15932;BME280;8065;49.520;11.284;2023-09-08T08:18:21;97841.91;;;24.25;65.02
15932;BME280;8065;49.520;11.284;2023-09-08T08:20:49;97844.91;;;24.41;64.83
15932;BME280;8065;49.520;11.284;2023-09-08T08:23:17;97844.31;;;24.68;64.67
15932;BME280;8065;49.520;11.284;2023-09-08T08:25:46;97835.69;;;24.76;63.13
15932;BME280;8065;49.520;11.284;2023-09-08T08:28:14;97841.34;;;24.93;63.28
15932;BME280;8065;49.520;11.284;2023-09-08T08:30:42;97838.22;;;24.94;62.66
15932;BME280;8065;49.520;11.284;2023-09-08T08:33:15;97843.63;;;25.01;62.18
15932;BME280;8065;49.520;11.284;2023-09-08T08:35:48;97837.84;;;25.30;62.78
15932;BME280;8065;49.520;11.284;2023-09-08T08:38:17;97837.69;;;25.44;61.75
15932;BME280;8065;49.520;11.284;2023-09-08T08:40:45;97840.19;;;25.65;62.00
15932;BME280;8065;49.520;11.284;2023-09-08T08:43:13;97832.69;;;25.73;61.11
15932;BME280;8065;49.520;11.284;2023-09-08T08:45:42;97829.47;;;25.82;60.92
15932;BME280;8065;49.520;11.284;2023-09-08T08:48:16;97831.28;;;25.92;61.06
15932;BME280;8065;49.520;11.284;2023-09-08T08:50:47;97838.34;;;26.12;59.27
15932;BME280;8065;49.520;11.284;2023-09-08T08:53:17;97842.41;;;26.01;58.50
15932;BME280;8065;49.520;11.284;2023-09-08T08:55:47;97835.25;;;26.37;60.87
15932;BME280;8065;49.520;11.284;2023-09-08T08:58:18;97833.19;;;26.45;59.56
15932;BME280;8065;49.520;11.284;2023-09-08T09:00:51;97831.84;;;26.80;60.41
15932;BME280;8065;49.520;11.284;2023-09-08T09:03:26;97833.75;;;27.03;58.53
15932;BME280;8065;49.520;11.284;2023-09-08T09:05:55;97828.94;;;27.10;57.81
15932;BME280;8065;49.520;11.284;2023-09-08T09:08:24;97832.31;;;26.95;58.61
15932;BME280;8065;49.520;11.284;2023-09-08T09:10:53;97829.28;;;27.13;57.41
15932;BME280;8065;49.520;11.284;2023-09-08T09:13:21;97832.84;;;27.09;57.80
15932;BME280;8065;49.520;11.284;2023-09-08T09:15:50;97822.16;;;27.58;56.54
15932;BME280;8065;49.520;11.284;2023-09-08T09:18:19;97824.41;;;27.80;58.00
15932;BME280;8065;49.520;11.284;2023-09-08T09:20:58;97815.53;;;27.59;55.97
15932;BME280;8065;49.520;11.284;2023-09-08T09:23:28;97817.19;;;27.89;55.68
15932;BME280;8065;49.520;11.284;2023-09-08T09:25:57;97818.03;;;28.22;55.34
15932;BME280;8065;49.520;11.284;2023-09-08T09:28:28;97825.56;;;27.98;53.70
15932;BME280;8065;49.520;11.284;2023-09-08T09:30:57;97819.66;;;27.84;55.40
15932;BME280;8065;49.520;11.284;2023-09-08T09:33:25;97819.69;;;28.16;54.89
15932;BME280;8065;49.520;11.284;2023-09-08T09:35:56;97816.66;;;28.47;54.53
15932;BME280;8065;49.520;11.284;2023-09-08T09:38:27;97812.91;;;28.41;54.32
15932;BME280;8065;49.520;11.284;2023-09-08T09:40:56;97804.53;;;28.77;54.43
15932;BME280;8065;49.520;11.284;2023-09-08T09:43:27;97803.94;;;28.69;54.21
15932;BME280;8065;49.520;11.284;2023-09-08T09:45:56;97797.09;;;28.93;54.31
15932;BME280;8065;49.520;11.284;2023-09-08T09:48:24;97795.31;;;29.16;53.92
15932;BME280;8065;49.520;11.284;2023-09-08T09:50:53;97799.19;;;29.31;52.47
15932;BME280;8065;49.520;11.284;2023-09-08T09:53:24;97796.31;;;29.22;52.26
15932;BME280;8065;49.520;11.284;2023-09-08T09:55:52;97800.44;;;29.55;53.14
15932;BME280;8065;49.520;11.284;2023-09-08T09:58:22;97793.75;;;29.15;53.22
15932;BME280;8065;49.520;11.284;2023-09-08T10:00:52;97793.75;;;29.15;52.34
15932;BME280;8065;49.520;11.284;2023-09-08T10:03:21;97790.03;;;29.63;51.56
15932;BME280;8065;49.520;11.284;2023-09-08T10:05:49;97789.53;;;30.06;51.33
15932;BME280;8065;49.520;11.284;2023-09-08T10:08:18;97787.31;;;29.76;51.77
15932;BME280;8065;49.520;11.284;2023-09-08T10:10:49;97791.56;;;29.51;51.25
15932;BME280;8065;49.520;11.284;2023-09-08T10:13:23;97787.94;;;29.54;51.39
15932;BME280;8065;49.520;11.284;2023-09-08T10:15:57;97791.25;;;29.75;52.05
15932;BME280;8065;49.520;11.284;2023-09-08T10:18:26;97785.66;;;29.78;50.99
15932;BME280;8065;49.520;11.284;2023-09-08T10:20:58;97783.56;;;29.95;50.14
15932;BME280;8065;49.520;11.284;2023-09-08T10:23:34;97780.56;;;30.40;49.10
15932;BME280;8065;49.520;11.284;2023-09-08T10:26:08;97777.97;;;29.98;50.61
15932;BME280;8065;49.520;11.284;2023-09-08T10:28:37;97771.19;;;30.16;49.12
15932;BME280;8065;49.520;11.284;2023-09-08T10:31:07;97771.97;;;30.16;50.21
15932;BME280;8065;49.520;11.284;2023-09-08T10:33:36;97774.69;;;30.16;49.21
15932;BME280;8065;49.520;11.284;2023-09-08T10:36:08;97767.44;;;29.97;49.72
15932;BME280;8065;49.520;11.284;2023-09-08T10:38:37;97774.94;;;30.44;50.01
15932;BME280;8065;49.520;11.284;2023-09-08T10:41:30;97766.94;;;30.49;50.58
15932;BME280;8065;49.520;11.284;2023-09-08T10:44:04;97770.28;;;30.31;49.51
15932;BME280;8065;49.520;11.284;2023-09-08T10:46:36;97766.25;;;30.23;49.26
15932;BME280;8065;49.520;11.284;2023-09-08T10:49:06;97759.22;;;30.57;48.36
15932;BME280;8065;49.520;11.284;2023-09-08T10:51:36;97760.75;;;30.71;49.05
15932;BME280;8065;49.520;11.284;2023-09-08T10:54:05;97755.63;;;30.60;47.65
15932;BME280;8065;49.520;11.284;2023-09-08T10:56:55;97755.19;;;30.14;48.59
15932;BME280;8065;49.520;11.284;2023-09-08T10:59:28;97749.78;;;30.23;47.61
15932;BME280;8065;49.520;11.284;2023-09-08T11:01:56;97748.94;;;30.48;49.25
15932;BME280;8065;49.520;11.284;2023-09-08T11:04:25;97746.06;;;30.52;46.75
15932;BME280;8065;49.520;11.284;2023-09-08T11:06:56;97742.03;;;30.44;48.01
15932;BME280;8065;49.520;11.284;2023-09-08T11:09:24;97755.72;;;30.56;48.60
15932;BME280;8065;49.520;11.284;2023-09-08T11:11:55;97747.81;;;30.58;45.89
15932;BME280;8065;49.520;11.284;2023-09-08T11:14:25;97748.94;;;30.83;47.03
15932;BME280;8065;49.520;11.284;2023-09-08T11:16:54;97757.38;;;30.88;47.48
15932;BME280;8065;49.520;11.284;2023-09-08T11:19:22;97754.22;;;30.77;47.57
15932;BME280;8065;49.520;11.284;2023-09-08T11:21:51;97756.00;;;30.71;47.39
15932;BME280;8065;49.520;11.284;2023-09-08T11:24:19;97746.13;;;30.95;48.00
15932;BME280;8065;49.520;11.284;2023-09-08T11:26:48;97756.66;;;30.97;46.92
15932;BME280;8065;49.520;11.284;2023-09-08T11:29:19;97757.81;;;31.09;45.32
15932;BME280;8065;49.520;11.284;2023-09-08T11:31:51;97761.38;;;31.40;45.06
15932;BME280;8065;49.520;11.284;2023-09-08T11:34:20;97756.69;;;31.19;44.82
15932;BME280;8065;49.520;11.284;2023-09-08T11:36:48;97758.56;;;31.31;44.31
15932;BME280;8065;49.520;11.284;2023-09-08T11:39:18;97751.00;;;31.44;45.17
15932;BME280;8065;49.520;11.284;2023-09-08T11:41:46;97752.00;;;31.59;43.52
15932;BME280;8065;49.520;11.284;2023-09-08T11:44:15;97751.09;;;31.93;43.91
15932;BME280;8065;49.520;11.284;2023-09-08T11:46:46;97753.56;;;32.01;43.59
15932;BME280;8065;49.520;11.284;2023-09-08T11:49:18;97752.78;;;32.00;43.18
15932;BME280;8065;49.520;11.284;2023-09-08T11:51:49;97748.03;;;31.60;44.00
15932;BME280;8065;49.520;11.284;2023-09-08T11:54:17;97755.34;;;31.54;43.17
15932;BME280;8065;49.520;11.284;2023-09-08T11:56:46;97747.91;;;31.11;43.51
15932;BME280;8065;49.520;11.284;2023-09-08T11:59:15;97749.03;;;31.14;43.04
15932;BME280;8065;49.520;11.284;2023-09-08T12:01:46;97746.13;;;31.48;43.48
15932;BME280;8065;49.520;11.284;2023-09-08T12:04:18;97742.41;;;32.04;43.50
15932;BME280;8065;49.520;11.284;2023-09-08T12:06:47;97745.47;;;32.06;43.04
15932;BME280;8065;49.520;11.284;2023-09-08T12:09:16;97739.41;;;31.71;42.14
15932;BME280;8065;49.520;11.284;2023-09-08T12:11:45;97748.13;;;31.79;42.65
15932;BME280;8065;49.520;11.284;2023-09-08T12:14:14;97734.47;;;31.66;42.59
15932;BME280;8065;49.520;11.284;2023-09-08T12:16:45;97734.88;;;31.55;43.50
15932;BME280;8065;49.520;11.284;2023-09-08T12:19:29;97735.88;;;31.71;44.07
15932;BME280;8065;49.520;11.284;2023-09-08T12:22:00;97731.00;;;31.75;44.45
15932;BME280;8065;49.520;11.284;2023-09-08T12:24:46;97734.06;;;31.77;43.41
15932;BME280;8065;49.520;11.284;2023-09-08T12:27:15;97728.44;;;31.49;44.33
15932;BME280;8065;49.520;11.284;2023-09-08T12:29:59;97717.00;;;31.91;44.86
15932;BME280;8065;49.520;11.284;2023-09-08T12:32:32;97725.84;;;31.86;43.38
15932;BME280;8065;49.520;11.284;2023-09-08T12:35:03;97721.88;;;31.87;42.74
15932;BME280;8065;49.520;11.284;2023-09-08T12:37:33;97716.47;;;32.42;42.44
15932;BME280;8065;49.520;11.284;2023-09-08T12:40:03;97714.81;;;32.44;42.03
15932;BME280;8065;49.520;11.284;2023-09-08T12:42:31;97726.56;;;32.63;43.88
15932;BME280;8065;49.520;11.284;2023-09-08T12:45:00;97712.72;;;31.90;42.56
15932;BME280;8065;49.520;11.284;2023-09-08T12:47:28;97722.44;;;31.73;42.97
15932;BME280;8065;49.520;11.284;2023-09-08T12:49:59;97721.00;;;32.08;43.09
15932;BME280;8065;49.520;11.284;2023-09-08T12:52:28;97711.78;;;31.84;42.41
15932;BME280;8065;49.520;11.284;2023-09-08T12:54:57;97709.03;;;31.75;43.28
15932;BME280;8065;49.520;11.284;2023-09-08T12:57:25;97704.34;;;31.93;42.03
15932;BME280;8065;49.520;11.284;2023-09-08T12:59:55;97713.38;;;32.03;43.05
15932;BME280;8065;49.520;11.284;2023-09-08T13:02:24;97702.72;;;32.42;41.09
15932;BME280;8065;49.520;11.284;2023-09-08T13:04:52;97708.84;;;32.64;42.03
15932;BME280;8065;49.520;11.284;2023-09-08T13:07:23;97708.06;;;32.36;41.71
15932;BME280;8065;49.520;11.284;2023-09-08T13:09:52;97701.03;;;32.44;42.16
15932;BME280;8065;49.520;11.284;2023-09-08T13:12:20;97703.31;;;32.28;42.18